sensor_id;sensor_type;location;lat;lon;timestamp;pressure;altitude;pressure_sealevel;temperature
15680;BMP180;15488;48.114;11.532;2023-08-20T00:02:18;95775.00;;;31.20
15680;BMP180;15488;48.114;11.532;2023-08-20T00:04:47;95770.00;;;31.20
15680;BMP180;15488;48.114;11.532;2023-08-20T00:07:17;95768.00;;;31.20
15680;BMP180;15488;48.114;11.532;2023-08-20T00:09:45;95772.00;;;31.20
15680;BMP180;15488;48.114;11.532;2023-08-20T00:12:12;95767.00;;;31.20
15680;BMP180;15488;48.114;11.532;2023-08-20T00:14:53;95769.00;;;31.10
15680;BMP180;15488;48.114;11.532;2023-08-20T00:17:22;95770.00;;;31.10
15680;BMP180;15488;48.114;11.532;2023-08-20T00:19:53;95767.00;;;31.10
15680;BMP180;15488;48.114;11.532;2023-08-20T00:22:24;95773.00;;;31.10
15680;BMP180;15488;48.114;11.532;2023-08-20T00:24:53;95774.00;;;31.00
15680;BMP180;15488;48.114;11.532;2023-08-20T00:27:21;95774.00;;;31.00
15680;BMP180;15488;48.114;11.532;2023-08-20T00:29:48;95780.00;;;31.00
15680;BMP180;15488;48.114;11.532;2023-08-20T00:32:16;95779.00;;;31.00
15680;BMP180;15488;48.114;11.532;2023-08-20T00:34:43;95775.00;;;30.90
15680;BMP180;15488;48.114;11.532;2023-08-20T00:37:11;95774.00;;;30.90
15680;BMP180;15488;48.114;11.532;2023-08-20T00:39:40;95777.00;;;30.90
15680;BMP180;15488;48.114;11.532;2023-08-20T00:42:08;95784.00;;;30.90
15680;BMP180;15488;48.114;11.532;2023-08-20T00:44:36;95783.00;;;30.90
15680;BMP180;15488;48.114;11.532;2023-08-20T00:47:05;95785.00;;;30.80
15680;BMP180;15488;48.114;11.532;2023-08-20T00:49:32;95782.00;;;30.90
15680;BMP180;15488;48.114;11.532;2023-08-20T00:52:00;95772.00;;;30.80
15680;BMP180;15488;48.114;11.532;2023-08-20T00:54:29;95778.00;;;30.80
15680;BMP180;15488;48.114;11.532;2023-08-20T00:57:01;95775.00;;;30.80
15680;BMP180;15488;48.114;11.532;2023-08-20T00:59:29;95780.00;;;30.80
15680;BMP180;15488;48.114;11.532;2023-08-20T01:01:58;95778.00;;;30.80
15680;BMP180;15488;48.114;11.532;2023-08-20T01:04:25;95786.00;;;30.80
15680;BMP180;15488;48.114;11.532;2023-08-20T01:06:58;95787.00;;;30.70
15680;BMP180;15488;48.114;11.532;2023-08-20T01:09:35;95785.00;;;30.70
15680;BMP180;15488;48.114;11.532;2023-08-20T01:12:07;95784.00;;;30.70
15680;BMP180;15488;48.114;11.532;2023-08-20T01:14:35;95773.00;;;30.60
15680;BMP180;15488;48.114;11.532;2023-08-20T01:17:03;95780.00;;;30.70
15680;BMP180;15488;48.114;11.532;2023-08-20T01:19:31;95781.00;;;30.70
15680;BMP180;15488;48.114;11.532;2023-08-20T01:22:13;95778.00;;;30.70
15680;BMP180;15488;48.114;11.532;2023-08-20T01:24:52;95775.00;;;30.60
15680;BMP180;15488;48.114;11.532;2023-08-20T01:27:38;95779.00;;;30.60
15680;BMP180;15488;48.114;11.532;2023-08-20T01:30:10;95780.00;;;30.60
15680;BMP180;15488;48.114;11.532;2023-08-20T01:32:38;95788.00;;;30.50
15680;BMP180;15488;48.114;11.532;2023-08-20T01:35:08;95788.00;;;30.50
15680;BMP180;15488;48.114;11.532;2023-08-20T01:37:38;95792.00;;;30.50
15680;BMP180;15488;48.114;11.532;2023-08-20T01:40:07;95789.00;;;30.50
15680;BMP180;15488;48.114;11.532;2023-08-20T01:42:36;95789.00;;;30.50
15680;BMP180;15488;48.114;11.532;2023-08-20T01:45:05;95790.00;;;30.40
15680;BMP180;15488;48.114;11.532;2023-08-20T01:47:34;95793.00;;;30.40
15680;BMP180;15488;48.114;11.532;2023-08-20T01:50:02;95794.00;;;30.40
15680;BMP180;15488;48.114;11.532;2023-08-20T01:52:29;95795.00;;;30.30
15680;BMP180;15488;48.114;11.532;2023-08-20T01:54:57;95797.00;;;30.30
15680;BMP180;15488;48.114;11.532;2023-08-20T01:57:25;95802.00;;;30.30
15680;BMP180;15488;48.114;11.532;2023-08-20T01:59:52;95797.00;;;30.30
15680;BMP180;15488;48.114;11.532;2023-08-20T02:02:20;95789.00;;;30.20
15680;BMP180;15488;48.114;11.532;2023-08-20T02:04:48;95756.00;;;30.20
15680;BMP180;15488;48.114;11.532;2023-08-20T02:07:16;95791.00;;;30.20
15680;BMP180;15488;48.114;11.532;2023-08-20T02:09:43;95791.00;;;30.20
15680;BMP180;15488;48.114;11.532;2023-08-20T02:12:11;95792.00;;;30.10
15680;BMP180;15488;48.114;11.532;2023-08-20T02:14:38;95795.00;;;30.10
15680;BMP180;15488;48.114;11.532;2023-08-20T02:17:06;95790.00;;;30.10
15680;BMP180;15488;48.114;11.532;2023-08-20T02:19:34;95789.00;;;30.00
15680;BMP180;15488;48.114;11.532;2023-08-20T02:22:03;95786.00;;;30.00
15680;BMP180;15488;48.114;11.532;2023-08-20T02:24:31;95785.00;;;30.00
15680;BMP180;15488;48.114;11.532;2023-08-20T02:26:58;95785.00;;;29.90
15680;BMP180;15488;48.114;11.532;2023-08-20T02:29:25;95787.00;;;29.90
15680;BMP180;15488;48.114;11.532;2023-08-20T02:31:53;95788.00;;;29.90
15680;BMP180;15488;48.114;11.532;2023-08-20T02:34:22;95786.00;;;29.90
15680;BMP180;15488;48.114;11.532;2023-08-20T02:36:49;95789.00;;;29.90
15680;BMP180;15488;48.114;11.532;2023-08-20T02:39:19;95791.00;;;29.80
15680;BMP180;15488;48.114;11.532;2023-08-20T02:41:47;95796.00;;;29.80
15680;BMP180;15488;48.114;11.532;2023-08-20T02:44:14;95796.00;;;29.80
15680;BMP180;15488;48.114;11.532;2023-08-20T02:46:43;95795.00;;;29.70
15680;BMP180;15488;48.114;11.532;2023-08-20T02:49:11;95793.00;;;29.70
15680;BMP180;15488;48.114;11.532;2023-08-20T02:51:42;95796.00;;;29.70
15680;BMP180;15488;48.114;11.532;2023-08-20T02:54:10;95786.00;;;29.70
15680;BMP180;15488;48.114;11.532;2023-08-20T02:56:38;95792.00;;;29.60
15680;BMP180;15488;48.114;11.532;2023-08-20T02:59:06;95791.00;;;29.60
15680;BMP180;15488;48.114;11.532;2023-08-20T03:01:33;95793.00;;;29.60
15680;BMP180;15488;48.114;11.532;2023-08-20T03:04:01;95792.00;;;29.60
15680;BMP180;15488;48.114;11.532;2023-08-20T03:06:29;95796.00;;;29.50
15680;BMP180;15488;48.114;11.532;2023-08-20T03:08:56;95796.00;;;29.50
15680;BMP180;15488;48.114;11.532;2023-08-20T03:11:24;95798.00;;;29.50
15680;BMP180;15488;48.114;11.532;2023-08-20T03:13:53;95799.00;;;29.50
15680;BMP180;15488;48.114;11.532;2023-08-20T03:16:20;95795.00;;;29.50
15680;BMP180;15488;48.114;11.532;2023-08-20T03:18:47;95801.00;;;29.40
15680;BMP180;15488;48.114;11.532;2023-08-20T03:21:15;95803.00;;;29.40
15680;BMP180;15488;48.114;11.532;2023-08-20T03:23:42;95800.00;;;29.40
15680;BMP180;15488;48.114;11.532;2023-08-20T03:26:10;95803.00;;;29.40
15680;BMP180;15488;48.114;11.532;2023-08-20T03:28:37;95805.00;;;29.30
15680;BMP180;15488;48.114;11.532;2023-08-20T03:31:06;95810.00;;;29.30
15680;BMP180;15488;48.114;11.532;2023-08-20T03:33:34;95810.00;;;29.30
15680;BMP180;15488;48.114;11.532;2023-08-20T03:36:01;95807.00;;;29.30
15680;BMP180;15488;48.114;11.532;2023-08-20T03:38:29;95806.00;;;29.20
15680;BMP180;15488;48.114;11.532;2023-08-20T03:40:56;95816.00;;;29.20
15680;BMP180;15488;48.114;11.532;2023-08-20T03:43:23;95811.00;;;29.20
15680;BMP180;15488;48.114;11.532;2023-08-20T03:45:51;95817.00;;;29.20
15680;BMP180;15488;48.114;11.532;2023-08-20T03:48:20;95820.00;;;29.20
15680;BMP180;15488;48.114;11.532;2023-08-20T03:50:47;95817.00;;;29.20
15680;BMP180;15488;48.114;11.532;2023-08-20T03:53:15;95821.00;;;29.20
15680;BMP180;15488;48.114;11.532;2023-08-20T03:55:48;95819.00;;;29.10
15680;BMP180;15488;48.114;11.532;2023-08-20T03:58:15;95824.00;;;29.10
15680;BMP180;15488;48.114;11.532;2023-08-20T04:00:43;95818.00;;;29.10
15680;BMP180;15488;48.114;11.532;2023-08-20T04:03:10;95825.00;;;29.10
15680;BMP180;15488;48.114;11.532;2023-08-20T04:05:39;95829.00;;;29.00
15680;BMP180;15488;48.114;11.532;2023-08-20T04:08:07;95829.00;;;29.00
15680;BMP180;15488;48.114;11.532;2023-08-20T04:10:34;95833.00;;;29.00
15680;BMP180;15488;48.114;11.532;2023-08-20T04:13:02;95835.00;;;29.00
15680;BMP180;15488;48.114;11.532;2023-08-20T04:15:29;95841.00;;;29.00
15680;BMP180;15488;48.114;11.532;2023-08-20T04:17:57;95846.00;;;28.90
15680;BMP180;15488;48.114;11.532;2023-08-20T04:20:24;95852.00;;;28.90
15680;BMP180;15488;48.114;11.532;2023-08-20T04:22:54;95854.00;;;28.90
15680;BMP180;15488;48.114;11.532;2023-08-20T04:25:21;95846.00;;;28.90
15680;BMP180;15488;48.114;11.532;2023-08-20T04:27:49;95848.00;;;28.90
15680;BMP180;15488;48.114;11.532;2023-08-20T04:30:16;95850.00;;;28.80
15680;BMP180;15488;48.114;11.532;2023-08-20T04:32:44;95846.00;;;28.80
15680;BMP180;15488;48.114;11.532;2023-08-20T04:35:11;95850.00;;;28.80
15680;BMP180;15488;48.114;11.532;2023-08-20T04:37:38;95851.00;;;28.80
15680;BMP180;15488;48.114;11.532;2023-08-20T04:40:09;95845.00;;;28.80
15680;BMP180;15488;48.114;11.532;2023-08-20T04:42:36;95846.00;;;28.80
15680;BMP180;15488;48.114;11.532;2023-08-20T04:45:04;95843.00;;;28.80
15680;BMP180;15488;48.114;11.532;2023-08-20T04:47:32;95848.00;;;28.80
15680;BMP180;15488;48.114;11.532;2023-08-20T04:50:00;95855.00;;;28.80
15680;BMP180;15488;48.114;11.532;2023-08-20T04:52:27;95844.00;;;28.80
15680;BMP180;15488;48.114;11.532;2023-08-20T04:54:55;95850.00;;;28.70
15680;BMP180;15488;48.114;11.532;2023-08-20T04:57:24;95853.00;;;28.70
15680;BMP180;15488;48.114;11.532;2023-08-20T04:59:51;95860.00;;;28.70
15680;BMP180;15488;48.114;11.532;2023-08-20T05:02:19;95858.00;;;28.70
15680;BMP180;15488;48.114;11.532;2023-08-20T05:04:46;95860.00;;;28.70
15680;BMP180;15488;48.114;11.532;2023-08-20T05:07:14;95856.00;;;28.70
15680;BMP180;15488;48.114;11.532;2023-08-20T05:09:41;95854.00;;;28.70
15680;BMP180;15488;48.114;11.532;2023-08-20T05:12:09;95853.00;;;28.70
15680;BMP180;15488;48.114;11.532;2023-08-20T05:14:38;95849.00;;;28.60
15680;BMP180;15488;48.114;11.532;2023-08-20T05:17:05;95853.00;;;28.70
15680;BMP180;15488;48.114;11.532;2023-08-20T05:19:32;95854.00;;;28.70
15680;BMP180;15488;48.114;11.532;2023-08-20T05:22:00;95855.00;;;28.60
15680;BMP180;15488;48.114;11.532;2023-08-20T05:24:27;95860.00;;;28.60
15680;BMP180;15488;48.114;11.532;2023-08-20T05:27:05;95860.00;;;28.60
15680;BMP180;15488;48.114;11.532;2023-08-20T05:29:33;95862.00;;;28.70
15680;BMP180;15488;48.114;11.532;2023-08-20T05:32:02;95860.00;;;28.60
15680;BMP180;15488;48.114;11.532;2023-08-20T05:34:29;95855.00;;;28.70
15680;BMP180;15488;48.114;11.532;2023-08-20T05:36:57;95855.00;;;28.70
15680;BMP180;15488;48.114;11.532;2023-08-20T05:39:24;95853.00;;;28.70
15680;BMP180;15488;48.114;11.532;2023-08-20T05:41:52;95853.00;;;28.70
15680;BMP180;15488;48.114;11.532;2023-08-20T05:44:20;95852.00;;;28.70
15680;BMP180;15488;48.114;11.532;2023-08-20T05:46:47;95858.00;;;28.70
15680;BMP180;15488;48.114;11.532;2023-08-20T05:49:16;95849.00;;;28.70
15680;BMP180;15488;48.114;11.532;2023-08-20T05:51:44;95843.00;;;28.80
15680;BMP180;15488;48.114;11.532;2023-08-20T05:54:11;95845.00;;;28.80
15680;BMP180;15488;48.114;11.532;2023-08-20T05:56:38;95844.00;;;28.80
15680;BMP180;15488;48.114;11.532;2023-08-20T05:59:06;95848.00;;;28.80
15680;BMP180;15488;48.114;11.532;2023-08-20T06:01:33;95840.00;;;28.90
15680;BMP180;15488;48.114;11.532;2023-08-20T06:04:01;95848.00;;;28.90
15680;BMP180;15488;48.114;11.532;2023-08-20T06:06:30;95842.00;;;28.90
15680;BMP180;15488;48.114;11.532;2023-08-20T06:08:57;95848.00;;;29.00
15680;BMP180;15488;48.114;11.532;2023-08-20T06:11:24;95849.00;;;29.00
15680;BMP180;15488;48.114;11.532;2023-08-20T06:13:52;95845.00;;;29.00
15680;BMP180;15488;48.114;11.532;2023-08-20T06:16:19;95846.00;;;29.10
15680;BMP180;15488;48.114;11.532;2023-08-20T06:18:47;95845.00;;;29.10
15680;BMP180;15488;48.114;11.532;2023-08-20T06:21:14;95851.00;;;29.20
15680;BMP180;15488;48.114;11.532;2023-08-20T06:23:43;95856.00;;;29.20
15680;BMP180;15488;48.114;11.532;2023-08-20T06:26:11;95861.00;;;29.20
15680;BMP180;15488;48.114;11.532;2023-08-20T06:28:38;95862.00;;;29.30
15680;BMP180;15488;48.114;11.532;2023-08-20T06:31:06;95866.00;;;29.30
15680;BMP180;15488;48.114;11.532;2023-08-20T06:33:33;95865.00;;;29.30
15680;BMP180;15488;48.114;11.532;2023-08-20T06:36:01;95871.00;;;29.40
15680;BMP180;15488;48.114;11.532;2023-08-20T06:38:28;95869.00;;;29.40
15680;BMP180;15488;48.114;11.532;2023-08-20T06:40:58;95869.00;;;29.50
15680;BMP180;15488;48.114;11.532;2023-08-20T06:43:25;95871.00;;;29.50
15680;BMP180;15488;48.114;11.532;2023-08-20T06:45:52;95870.00;;;29.50
15680;BMP180;15488;48.114;11.532;2023-08-20T06:48:20;95865.00;;;29.60
15680;BMP180;15488;48.114;11.532;2023-08-20T06:50:49;95872.00;;;29.60
15680;BMP180;15488;48.114;11.532;2023-08-20T06:53:16;95875.00;;;29.60
15680;BMP180;15488;48.114;11.532;2023-08-20T06:55:44;95873.00;;;29.70
15680;BMP180;15488;48.114;11.532;2023-08-20T06:58:13;95874.00;;;29.70
15680;BMP180;15488;48.114;11.532;2023-08-20T07:00:40;95872.00;;;29.80
15680;BMP180;15488;48.114;11.532;2023-08-20T07:03:07;95879.00;;;29.80
15680;BMP180;15488;48.114;11.532;2023-08-20T07:05:35;95875.00;;;29.90
15680;BMP180;15488;48.114;11.532;2023-08-20T07:08:03;95877.00;;;29.90
15680;BMP180;15488;48.114;11.532;2023-08-20T07:10:30;95881.00;;;29.90
15680;BMP180;15488;48.114;11.532;2023-08-20T07:12:58;95876.00;;;30.00
15680;BMP180;15488;48.114;11.532;2023-08-20T07:15:26;95874.00;;;30.00
15680;BMP180;15488;48.114;11.532;2023-08-20T07:17:54;95873.00;;;30.10
15680;BMP180;15488;48.114;11.532;2023-08-20T07:20:21;95874.00;;;30.10
15680;BMP180;15488;48.114;11.532;2023-08-20T07:22:49;95871.00;;;30.20
15680;BMP180;15488;48.114;11.532;2023-08-20T07:25:16;95877.00;;;30.20
15680;BMP180;15488;48.114;11.532;2023-08-20T07:27:44;95888.00;;;30.20
15680;BMP180;15488;48.114;11.532;2023-08-20T07:30:12;95895.00;;;30.30
15680;BMP180;15488;48.114;11.532;2023-08-20T07:32:40;95887.00;;;30.30
15680;BMP180;15488;48.114;11.532;2023-08-20T07:35:08;95893.00;;;30.40
15680;BMP180;15488;48.114;11.532;2023-08-20T07:37:36;95891.00;;;30.50
15680;BMP180;15488;48.114;11.532;2023-08-20T07:40:04;95895.00;;;30.50
15680;BMP180;15488;48.114;11.532;2023-08-20T07:42:32;95889.00;;;30.60
15680;BMP180;15488;48.114;11.532;2023-08-20T07:44:59;95898.00;;;30.70
15680;BMP180;15488;48.114;11.532;2023-08-20T07:47:27;95897.00;;;30.70
15680;BMP180;15488;48.114;11.532;2023-08-20T07:49:57;95897.00;;;30.80
15680;BMP180;15488;48.114;11.532;2023-08-20T07:52:24;95897.00;;;30.90
15680;BMP180;15488;48.114;11.532;2023-08-20T07:54:52;95907.00;;;30.90
15680;BMP180;15488;48.114;11.532;2023-08-20T07:57:19;95906.00;;;31.00
15680;BMP180;15488;48.114;11.532;2023-08-20T07:59:47;95905.00;;;31.00
15680;BMP180;15488;48.114;11.532;2023-08-20T08:02:14;95915.00;;;31.10
15680;BMP180;15488;48.114;11.532;2023-08-20T08:04:42;95901.00;;;31.10
15680;BMP180;15488;48.114;11.532;2023-08-20T08:07:12;95911.00;;;31.20
15680;BMP180;15488;48.114;11.532;2023-08-20T08:09:39;95905.00;;;31.30
15680;BMP180;15488;48.114;11.532;2023-08-20T08:12:07;95916.00;;;31.30
15680;BMP180;15488;48.114;11.532;2023-08-20T08:14:34;95912.00;;;31.40
15680;BMP180;15488;48.114;11.532;2023-08-20T08:17:02;95909.00;;;31.40
15680;BMP180;15488;48.114;11.532;2023-08-20T08:19:30;95911.00;;;31.50
15680;BMP180;15488;48.114;11.532;2023-08-20T08:21:57;95910.00;;;31.50
15680;BMP180;15488;48.114;11.532;2023-08-20T08:24:26;95912.00;;;31.50
15680;BMP180;15488;48.114;11.532;2023-08-20T08:26:54;95913.00;;;31.60
15680;BMP180;15488;48.114;11.532;2023-08-20T08:29:21;95914.00;;;31.70
15680;BMP180;15488;48.114;11.532;2023-08-20T08:31:48;95909.00;;;31.70
15680;BMP180;15488;48.114;11.532;2023-08-20T08:34:16;95911.00;;;31.80
15680;BMP180;15488;48.114;11.532;2023-08-20T08:36:44;95905.00;;;31.90
15680;BMP180;15488;48.114;11.532;2023-08-20T08:39:11;95913.00;;;31.90
15680;BMP180;15488;48.114;11.532;2023-08-20T08:41:42;95911.00;;;32.00
15680;BMP180;15488;48.114;11.532;2023-08-20T08:44:10;95907.00;;;32.10
15680;BMP180;15488;48.114;11.532;2023-08-20T08:46:39;95908.00;;;32.10
15680;BMP180;15488;48.114;11.532;2023-08-20T08:49:06;95911.00;;;32.20
15680;BMP180;15488;48.114;11.532;2023-08-20T08:51:36;95908.00;;;32.30
15680;BMP180;15488;48.114;11.532;2023-08-20T08:54:04;95912.00;;;32.40
15680;BMP180;15488;48.114;11.532;2023-08-20T08:56:32;95896.00;;;32.50
15680;BMP180;15488;48.114;11.532;2023-08-20T08:59:01;95909.00;;;32.50
15680;BMP180;15488;48.114;11.532;2023-08-20T09:01:29;95905.00;;;32.60
15680;BMP180;15488;48.114;11.532;2023-08-20T09:03:57;95902.00;;;32.70
15680;BMP180;15488;48.114;11.532;2023-08-20T09:06:24;95903.00;;;32.70
15680;BMP180;15488;48.114;11.532;2023-08-20T09:09:04;95902.00;;;32.80
15680;BMP180;15488;48.114;11.532;2023-08-20T09:11:35;95903.00;;;32.90
15680;BMP180;15488;48.114;11.532;2023-08-20T09:14:04;95908.00;;;33.00
15680;BMP180;15488;48.114;11.532;2023-08-20T09:16:32;95907.00;;;33.00
15680;BMP180;15488;48.114;11.532;2023-08-20T09:19:00;95917.00;;;33.10
15680;BMP180;15488;48.114;11.532;2023-08-20T09:21:28;95906.00;;;33.10
15680;BMP180;15488;48.114;11.532;2023-08-20T09:23:56;95908.00;;;33.30
15680;BMP180;15488;48.114;11.532;2023-08-20T09:26:24;95905.00;;;33.40
15680;BMP180;15488;48.114;11.532;2023-08-20T09:28:53;95911.00;;;33.40
15680;BMP180;15488;48.114;11.532;2023-08-20T09:31:37;95916.00;;;33.50
15680;BMP180;15488;48.114;11.532;2023-08-20T09:34:05;95916.00;;;33.60
15680;BMP180;15488;48.114;11.532;2023-08-20T09:36:34;95920.00;;;33.70
15680;BMP180;15488;48.114;11.532;2023-08-20T09:39:02;95919.00;;;33.80
15680;BMP180;15488;48.114;11.532;2023-08-20T09:41:30;95918.00;;;33.80
15680;BMP180;15488;48.114;11.532;2023-08-20T09:43:58;95918.00;;;33.90
15680;BMP180;15488;48.114;11.532;2023-08-20T09:46:29;95918.00;;;34.00
15680;BMP180;15488;48.114;11.532;2023-08-20T09:48:58;95915.00;;;34.10
15680;BMP180;15488;48.114;11.532;2023-08-20T09:51:27;95923.00;;;34.20
15680;BMP180;15488;48.114;11.532;2023-08-20T09:54:00;95925.00;;;34.30
15680;BMP180;15488;48.114;11.532;2023-08-20T09:56:30;95926.00;;;34.40
15680;BMP180;15488;48.114;11.532;2023-08-20T09:58:58;95917.00;;;34.40
15680;BMP180;15488;48.114;11.532;2023-08-20T10:01:28;95917.00;;;34.50
15680;BMP180;15488;48.114;11.532;2023-08-20T10:03:55;95914.00;;;34.60
15680;BMP180;15488;48.114;11.532;2023-08-20T10:06:23;95921.00;;;34.60
15680;BMP180;15488;48.114;11.532;2023-08-20T10:08:52;95917.00;;;34.70
15680;BMP180;15488;48.114;11.532;2023-08-20T10:11:20;95921.00;;;34.80
15680;BMP180;15488;48.114;11.532;2023-08-20T10:13:48;95915.00;;;34.90
15680;BMP180;15488;48.114;11.532;2023-08-20T10:16:17;95923.00;;;34.90
15680;BMP180;15488;48.114;11.532;2023-08-20T10:18:49;95926.00;;;35.00
15680;BMP180;15488;48.114;11.532;2023-08-20T10:21:16;95920.00;;;35.00
15680;BMP180;15488;48.114;11.532;2023-08-20T10:23:49;95924.00;;;35.00
15680;BMP180;15488;48.114;11.532;2023-08-20T10:26:16;95926.00;;;35.10
15680;BMP180;15488;48.114;11.532;2023-08-20T10:28:45;95926.00;;;35.20
15680;BMP180;15488;48.114;11.532;2023-08-20T10:31:13;95916.00;;;35.30
15680;BMP180;15488;48.114;11.532;2023-08-20T10:33:54;95928.00;;;35.40
15680;BMP180;15488;48.114;11.532;2023-08-20T10:36:23;95930.00;;;35.40
15680;BMP180;15488;48.114;11.532;2023-08-20T10:38:54;95924.00;;;35.50
15680;BMP180;15488;48.114;11.532;2023-08-20T10:41:25;95922.00;;;35.50
15680;BMP180;15488;48.114;11.532;2023-08-20T10:43:54;95920.00;;;35.60
15680;BMP180;15488;48.114;11.532;2023-08-20T10:46:25;95926.00;;;35.60
15680;BMP180;15488;48.114;11.532;2023-08-20T10:48:55;95917.00;;;35.60
15680;BMP180;15488;48.114;11.532;2023-08-20T10:51:26;95916.00;;;35.70
15680;BMP180;15488;48.114;11.532;2023-08-20T10:54:05;95915.00;;;35.80
15680;BMP180;15488;48.114;11.532;2023-08-20T10:56:40;95915.00;;;35.80
15680;BMP180;15488;48.114;11.532;2023-08-20T10:59:09;95923.00;;;35.90
15680;BMP180;15488;48.114;11.532;2023-08-20T11:01:37;95923.00;;;35.90
15680;BMP180;15488;48.114;11.532;2023-08-20T11:04:07;95923.00;;;36.00
15680;BMP180;15488;48.114;11.532;2023-08-20T11:06:36;95921.00;;;36.10
15680;BMP180;15488;48.114;11.532;2023-08-20T11:09:05;95920.00;;;36.20
15680;BMP180;15488;48.114;11.532;2023-08-20T11:11:32;95916.00;;;36.20
15680;BMP180;15488;48.114;11.532;2023-08-20T11:14:05;95912.00;;;36.20
15680;BMP180;15488;48.114;11.532;2023-08-20T11:16:33;95915.00;;;36.30
15680;BMP180;15488;48.114;11.532;2023-08-20T11:19:01;95919.00;;;36.30
15680;BMP180;15488;48.114;11.532;2023-08-20T11:21:33;95906.00;;;36.40
15680;BMP180;15488;48.114;11.532;2023-08-20T11:24:01;95916.00;;;36.50
15680;BMP180;15488;48.114;11.532;2023-08-20T11:26:29;95908.00;;;36.50
15680;BMP180;15488;48.114;11.532;2023-08-20T11:28:57;95908.00;;;36.50
15680;BMP180;15488;48.114;11.532;2023-08-20T11:31:25;95910.00;;;36.60
15680;BMP180;15488;48.114;11.532;2023-08-20T11:33:52;95913.00;;;36.70
15680;BMP180;15488;48.114;11.532;2023-08-20T11:36:20;95904.00;;;36.80
15680;BMP180;15488;48.114;11.532;2023-08-20T11:38:52;95898.00;;;36.90
15680;BMP180;15488;48.114;11.532;2023-08-20T11:41:20;95903.00;;;37.00
15680;BMP180;15488;48.114;11.532;2023-08-20T11:43:48;95904.00;;;37.10
15680;BMP180;15488;48.114;11.532;2023-08-20T11:46:17;95903.00;;;37.10
15680;BMP180;15488;48.114;11.532;2023-08-20T11:49:02;95897.00;;;37.20
15680;BMP180;15488;48.114;11.532;2023-08-20T11:51:34;95901.00;;;37.30
15680;BMP180;15488;48.114;11.532;2023-08-20T11:54:05;95897.00;;;37.40
15680;BMP180;15488;48.114;11.532;2023-08-20T11:56:33;95894.00;;;37.50
15680;BMP180;15488;48.114;11.532;2023-08-20T11:59:02;95895.00;;;37.60
15680;BMP180;15488;48.114;11.532;2023-08-20T12:01:31;95892.00;;;37.70
15680;BMP180;15488;48.114;11.532;2023-08-20T12:04:04;95892.00;;;37.80
15680;BMP180;15488;48.114;11.532;2023-08-20T12:06:32;95893.00;;;37.90
15680;BMP180;15488;48.114;11.532;2023-08-20T12:09:01;95894.00;;;37.90
15680;BMP180;15488;48.114;11.532;2023-08-20T12:11:31;95887.00;;;38.00
15680;BMP180;15488;48.114;11.532;2023-08-20T12:13:59;95891.00;;;38.10
15680;BMP180;15488;48.114;11.532;2023-08-20T12:16:27;95888.00;;;38.30
15680;BMP180;15488;48.114;11.532;2023-08-20T12:18:54;95890.00;;;38.30
15680;BMP180;15488;48.114;11.532;2023-08-20T12:21:22;95891.00;;;38.50
15680;BMP180;15488;48.114;11.532;2023-08-20T12:23:49;95887.00;;;38.60
15680;BMP180;15488;48.114;11.532;2023-08-20T12:26:17;95887.00;;;38.70
15680;BMP180;15488;48.114;11.532;2023-08-20T12:28:46;95889.00;;;38.80
15680;BMP180;15488;48.114;11.532;2023-08-20T12:31:13;95889.00;;;38.90
15680;BMP180;15488;48.114;11.532;2023-08-20T12:33:41;95881.00;;;39.00
15680;BMP180;15488;48.114;11.532;2023-08-20T12:36:09;95877.00;;;39.20
15680;BMP180;15488;48.114;11.532;2023-08-20T12:38:36;95871.00;;;39.30
15680;BMP180;15488;48.114;11.532;2023-08-20T12:41:04;95880.00;;;39.40
15680;BMP180;15488;48.114;11.532;2023-08-20T12:43:32;95877.00;;;39.50
15680;BMP180;15488;48.114;11.532;2023-08-20T12:46:03;95870.00;;;39.60
15680;BMP180;15488;48.114;11.532;2023-08-20T12:48:30;95872.00;;;39.80
15680;BMP180;15488;48.114;11.532;2023-08-20T12:50:59;95871.00;;;39.90
15680;BMP180;15488;48.114;11.532;2023-08-20T12:53:26;95869.00;;;40.10
15680;BMP180;15488;48.114;11.532;2023-08-20T12:55:54;95873.00;;;40.20
15680;BMP180;15488;48.114;11.532;2023-08-20T12:58:21;95868.00;;;40.40
15680;BMP180;15488;48.114;11.532;2023-08-20T13:00:50;95862.00;;;40.50
15680;BMP180;15488;48.114;11.532;2023-08-20T13:03:19;95869.00;;;40.60
15680;BMP180;15488;48.114;11.532;2023-08-20T13:05:47;95861.00;;;40.80
15680;BMP180;15488;48.114;11.532;2023-08-20T13:08:15;95865.00;;;41.00
15680;BMP180;15488;48.114;11.532;2023-08-20T13:10:47;95861.00;;;41.20
15680;BMP180;15488;48.114;11.532;2023-08-20T13:13:19;95859.00;;;41.50
15680;BMP180;15488;48.114;11.532;2023-08-20T13:15:48;95859.00;;;41.80
15680;BMP180;15488;48.114;11.532;2023-08-20T13:18:18;95855.00;;;42.10
15680;BMP180;15488;48.114;11.532;2023-08-20T13:20:46;95854.00;;;42.40
15680;BMP180;15488;48.114;11.532;2023-08-20T13:23:13;95853.00;;;42.80
15680;BMP180;15488;48.114;11.532;2023-08-20T13:25:41;95851.00;;;43.20
15680;BMP180;15488;48.114;11.532;2023-08-20T13:28:09;95847.00;;;43.70
15680;BMP180;15488;48.114;11.532;2023-08-20T13:30:37;95843.00;;;44.10
15680;BMP180;15488;48.114;11.532;2023-08-20T13:33:04;95845.00;;;44.60
15680;BMP180;15488;48.114;11.532;2023-08-20T13:35:34;95845.00;;;45.10
15680;BMP180;15488;48.114;11.532;2023-08-20T13:38:02;95840.00;;;45.60
15680;BMP180;15488;48.114;11.532;2023-08-20T13:40:30;95848.00;;;46.10
15680;BMP180;15488;48.114;11.532;2023-08-20T13:42:58;95842.00;;;46.60
15680;BMP180;15488;48.114;11.532;2023-08-20T13:45:25;95842.00;;;47.10
15680;BMP180;15488;48.114;11.532;2023-08-20T13:47:52;95844.00;;;47.70
15680;BMP180;15488;48.114;11.532;2023-08-20T13:50:20;95838.00;;;48.20
15680;BMP180;15488;48.114;11.532;2023-08-20T13:52:49;95836.00;;;48.80
15680;BMP180;15488;48.114;11.532;2023-08-20T13:55:16;95829.00;;;49.30
15680;BMP180;15488;48.114;11.532;2023-08-20T13:57:44;95831.00;;;49.90
15680;BMP180;15488;48.114;11.532;2023-08-20T14:00:12;95811.00;;;50.50
15680;BMP180;15488;48.114;11.532;2023-08-20T14:02:40;95828.00;;;51.00
15680;BMP180;15488;48.114;11.532;2023-08-20T14:05:08;95831.00;;;51.60